createdAt,value
2022-07-26T00:01:57.725Z,23.30
2022-07-26T00:04:33.482Z,23.30
2022-07-26T00:07:04.663Z,23.30
2022-07-26T00:09:44.969Z,23.30
2022-07-26T00:12:22.702Z,23.20
2022-07-26T00:15:07.385Z,23.20
2022-07-26T00:17:38.464Z,23.10
2022-07-26T00:20:16.356Z,23.20
2022-07-26T00:22:45.816Z,23.10
2022-07-26T00:25:14.270Z,23.10
2022-07-26T00:27:49.147Z,23.20
2022-07-26T00:30:20.951Z,23.20
2022-07-26T00:32:58.312Z,23.20
2022-07-26T00:35:35.482Z,23.20
2022-07-26T00:38:09.156Z,23.20
2022-07-26T00:40:39.832Z,23.30
2022-07-26T00:43:11.907Z,23.30
2022-07-26T00:45:43.187Z,23.30
2022-07-26T00:48:11.885Z,23.20
2022-07-26T00:50:40.068Z,23.20
2022-07-26T00:53:09.694Z,23.10
2022-07-26T00:55:40.601Z,23.00
2022-07-26T00:58:13.674Z,23.00
2022-07-26T01:00:45.159Z,23.00
2022-07-26T01:03:15.630Z,22.90
2022-07-26T01:05:47.209Z,22.80
2022-07-26T01:08:17.705Z,22.80
2022-07-26T01:10:47.481Z,22.70
2022-07-26T01:13:24.288Z,22.60
2022-07-26T01:15:52.501Z,22.70
2022-07-26T01:18:20.718Z,22.70
2022-07-26T01:20:51.582Z,22.70
2022-07-26T01:23:22.436Z,22.70
2022-07-26T01:26:08.096Z,22.60
2022-07-26T01:28:41.913Z,22.70
2022-07-26T01:31:12.878Z,22.70
2022-07-26T01:33:42.483Z,22.60
2022-07-26T01:36:12.575Z,22.70
2022-07-26T01:38:47.781Z,22.70
2022-07-26T01:41:31.628Z,22.70
2022-07-26T01:44:10.037Z,22.60
2022-07-26T01:46:40.895Z,22.60
2022-07-26T01:49:10.649Z,22.60
2022-07-26T01:51:47.624Z,22.60
2022-07-26T01:54:29.447Z,22.60
2022-07-26T01:57:00.118Z,22.60
2022-07-26T01:59:29.580Z,22.60
2022-07-26T02:02:00.498Z,22.50
2022-07-26T02:04:59.043Z,22.50
2022-07-26T02:07:33.408Z,22.50
2022-07-26T02:10:12.597Z,22.50
2022-07-26T02:12:43.662Z,22.50
2022-07-26T02:15:15.377Z,22.50
2022-07-26T02:17:46.556Z,22.50
2022-07-26T02:20:21.278Z,22.50
2022-07-26T02:22:50.960Z,22.50
2022-07-26T02:25:30.808Z,22.50
2022-07-26T02:28:01.302Z,22.40
2022-07-26T02:30:30.761Z,22.50
2022-07-26T02:32:59.206Z,22.40
2022-07-26T02:35:29.733Z,22.30
2022-07-26T02:38:04.054Z,22.30
2022-07-26T02:40:45.650Z,22.20
2022-07-26T02:46:02.278Z,22.00
2022-07-26T02:48:34.197Z,22.00
2022-07-26T02:51:03.572Z,22.10
2022-07-26T02:53:34.051Z,22.10
2022-07-26T02:56:06.600Z,22.10
2022-07-26T02:58:36.179Z,22.20
2022-07-26T03:01:05.043Z,22.20
2022-07-26T03:03:36.751Z,22.20
2022-07-26T03:06:08.535Z,22.20
2022-07-26T03:08:38.794Z,22.10
2022-07-26T03:11:19.909Z,22.00
2022-07-26T03:13:49.719Z,22.00
2022-07-26T03:16:21.919Z,22.00
2022-07-26T03:18:55.280Z,22.00
2022-07-26T03:21:27.132Z,22.00
2022-07-26T03:23:55.797Z,22.00
2022-07-26T03:26:29.309Z,22.10
2022-07-26T03:28:58.210Z,22.00
2022-07-26T03:31:27.942Z,21.90
2022-07-26T03:34:01.291Z,21.80
2022-07-26T03:36:34.794Z,21.80
2022-07-26T03:39:05.686Z,21.80
2022-07-26T03:41:38.506Z,21.80
2022-07-26T03:44:27.361Z,21.80
2022-07-26T03:46:56.495Z,21.80
2022-07-26T03:49:25.723Z,21.80
2022-07-26T03:51:57.666Z,21.70
2022-07-26T03:54:29.025Z,21.70
2022-07-26T03:56:59.732Z,21.70
2022-07-26T03:59:27.918Z,21.70
2022-07-26T04:01:58.486Z,21.70
2022-07-26T04:04:32.672Z,21.60
2022-07-26T04:07:05.823Z,21.70
2022-07-26T04:09:40.200Z,21.60
2022-07-26T04:12:14.559Z,21.50
2022-07-26T04:14:45.904Z,21.70
2022-07-26T04:17:14.931Z,21.60
2022-07-26T04:19:44.511Z,21.50
2022-07-26T04:22:15.116Z,21.60
2022-07-26T04:24:43.311Z,21.50
2022-07-26T04:27:12.909Z,21.50
2022-07-26T04:29:42.359Z,21.50
2022-07-26T04:32:16.834Z,21.40
2022-07-26T04:34:48.195Z,21.50
2022-07-26T04:37:22.921Z,21.40
2022-07-26T04:39:55.237Z,21.50
2022-07-26T04:42:31.535Z,21.50
2022-07-26T04:45:04.396Z,21.50
2022-07-26T04:47:38.030Z,21.50
2022-07-26T04:50:08.880Z,21.60
2022-07-26T04:52:55.359Z,21.60
2022-07-26T04:55:34.268Z,21.60
2022-07-26T04:58:11.824Z,21.60
2022-07-26T05:01:03.182Z,21.50
2022-07-26T05:03:44.418Z,21.50
2022-07-26T05:06:17.748Z,21.50
2022-07-26T05:08:47.003Z,21.40
2022-07-26T05:11:16.588Z,21.30
2022-07-26T05:13:50.945Z,21.60
2022-07-26T05:16:20.383Z,21.70
2022-07-26T05:18:53.417Z,21.80
2022-07-26T05:21:21.715Z,21.80
2022-07-26T05:23:51.431Z,21.90
2022-07-26T05:26:25.688Z,21.90
2022-07-26T05:28:55.469Z,22.00
2022-07-26T05:31:26.678Z,22.10
2022-07-26T05:34:03.912Z,22.10
2022-07-26T05:36:33.432Z,22.00
2022-07-26T05:39:05.576Z,22.20
2022-07-26T05:41:34.994Z,22.20
2022-07-26T05:44:22.007Z,22.40
2022-07-26T05:46:54.531Z,22.30
2022-07-26T05:49:23.393Z,22.00
2022-07-26T05:52:06.941Z,21.90
2022-07-26T05:54:40.578Z,21.80
2022-07-26T05:57:17.657Z,21.80
2022-07-26T05:59:47.444Z,21.70
2022-07-26T06:02:24.303Z,21.80
2022-07-26T06:04:53.912Z,21.80
2022-07-26T06:07:22.600Z,22.00
2022-07-26T06:09:52.804Z,21.80
2022-07-26T06:12:25.621Z,21.80
2022-07-26T06:15:00.406Z,21.80
2022-07-26T06:17:30.460Z,21.80
2022-07-26T06:20:02.662Z,22.10
2022-07-26T06:22:32.959Z,22.20
2022-07-26T06:25:02.478Z,22.30
2022-07-26T06:27:34.322Z,22.30
2022-07-26T06:30:10.792Z,22.40
2022-07-26T06:32:42.138Z,22.40
2022-07-26T06:35:12.696Z,22.50
2022-07-26T06:37:53.320Z,22.60
2022-07-26T06:40:21.572Z,22.70
2022-07-26T06:42:52.141Z,23.00
2022-07-26T06:45:27.148Z,23.30
2022-07-26T06:47:55.570Z,23.70
2022-07-26T06:50:28.628Z,23.70
2022-07-26T06:53:01.123Z,23.60
2022-07-26T06:55:40.621Z,23.60
2022-07-26T06:58:14.616Z,23.40
2022-07-26T07:00:46.585Z,23.00
2022-07-26T07:03:16.196Z,22.70
2022-07-26T07:05:50.095Z,23.00
2022-07-26T07:08:18.909Z,23.60
2022-07-26T07:10:48.863Z,23.60
2022-07-26T07:13:35.999Z,23.80
2022-07-26T07:16:08.624Z,23.90
2022-07-26T07:18:37.112Z,23.30
2022-07-26T07:21:17.916Z,23.40
2022-07-26T07:23:49.813Z,23.40
2022-07-26T07:26:24.750Z,23.30
2022-07-26T07:28:53.169Z,23.30
2022-07-26T07:31:30.076Z,23.30
2022-07-26T07:33:59.157Z,23.20
2022-07-26T07:36:27.359Z,23.30
2022-07-26T07:39:00.824Z,23.50
2022-07-26T07:41:34.378Z,23.70
2022-07-26T07:44:05.277Z,23.80
2022-07-26T07:46:37.893Z,24.10
2022-07-26T07:49:14.744Z,24.20
2022-07-26T07:51:45.805Z,24.20
2022-07-26T07:54:20.618Z,24.20
2022-07-26T07:56:53.475Z,23.80
2022-07-26T07:59:22.860Z,23.90
2022-07-26T08:01:52.665Z,24.20
2022-07-26T08:04:22.407Z,24.50
2022-07-26T08:06:51.525Z,24.80
2022-07-26T08:09:20.428Z,24.50
2022-07-26T08:11:50.764Z,24.70
2022-07-26T08:14:19.563Z,24.50
2022-07-26T08:16:47.894Z,24.20
2022-07-26T08:19:17.543Z,24.50
2022-07-26T08:21:46.858Z,24.90
2022-07-26T08:24:15.315Z,24.90
2022-07-26T08:26:43.468Z,24.50
2022-07-26T08:29:12.050Z,24.60
2022-07-26T08:31:40.507Z,24.80
2022-07-26T08:34:08.792Z,24.90
2022-07-26T08:36:49.574Z,24.60
2022-07-26T08:39:26.681Z,24.40
2022-07-26T08:41:54.896Z,24.00
2022-07-26T08:44:23.089Z,23.90
2022-07-26T08:46:51.315Z,23.80
2022-07-26T08:49:19.564Z,23.80
2022-07-26T08:51:49.175Z,23.80
2022-07-26T08:54:17.425Z,23.80
2022-07-26T08:56:52.097Z,24.10
2022-07-26T08:59:22.676Z,24.30
2022-07-26T09:01:56.018Z,24.60
2022-07-26T09:04:32.230Z,25.00
2022-07-26T09:07:05.745Z,25.40
2022-07-26T09:09:35.196Z,25.40
2022-07-26T09:12:17.314Z,25.30
2022-07-26T09:14:46.815Z,25.40
2022-07-26T09:17:16.151Z,25.20
2022-07-26T09:19:44.479Z,25.00
2022-07-26T09:22:17.777Z,24.60
2022-07-26T09:24:48.682Z,24.80
2022-07-26T09:27:28.989Z,24.80
2022-07-26T09:29:57.720Z,25.00
2022-07-26T09:32:28.196Z,25.40
2022-07-26T09:35:44.188Z,25.30
2022-07-26T09:38:04.147Z,25.50
2022-07-26T09:40:37.329Z,25.90
2022-07-26T09:43:10.774Z,25.90
2022-07-26T09:48:52.065Z,25.80
2022-07-26T09:51:36.830Z,26.10
2022-07-26T09:54:09.027Z,26.40
2022-07-26T09:56:48.781Z,25.80
2022-07-26T09:59:25.959Z,25.90
2022-07-26T10:01:57.668Z,25.80
2022-07-26T10:04:36.123Z,25.30
2022-07-26T10:07:06.324Z,25.30
2022-07-26T10:09:47.041Z,25.80
2022-07-26T10:12:23.362Z,26.20
2022-07-26T10:14:55.795Z,26.20
2022-07-26T10:17:42.894Z,26.20
2022-07-26T10:20:24.769Z,26.30
2022-07-26T10:22:53.228Z,26.40
2022-07-26T10:25:50.909Z,26.20
2022-07-26T10:28:30.986Z,25.70
2022-07-26T10:31:29.468Z,25.70
2022-07-26T10:34:00.954Z,26.10
2022-07-26T10:36:36.772Z,26.20
2022-07-26T10:39:13.322Z,26.20
2022-07-26T10:41:48.124Z,26.30
2022-07-26T10:44:27.548Z,26.30
2022-07-26T10:47:15.609Z,26.30
2022-07-26T10:49:53.413Z,26.40
2022-07-26T10:52:23.443Z,26.30
2022-07-26T10:55:16.825Z,26.60
2022-07-26T10:57:48.182Z,26.70
2022-07-26T11:00:22.383Z,26.60
2022-07-26T11:02:55.765Z,26.90
2022-07-26T11:05:28.878Z,27.20
2022-07-26T11:08:05.381Z,27.10
2022-07-26T11:10:35.722Z,26.60
2022-07-26T11:13:14.859Z,26.50
2022-07-26T11:15:45.363Z,26.60
2022-07-26T11:18:22.558Z,26.30
2022-07-26T11:20:54.252Z,26.60
2022-07-26T11:23:28.072Z,27.00
2022-07-26T11:26:11.557Z,26.70
2022-07-26T11:28:56.119Z,26.40
2022-07-26T11:31:49.570Z,26.10
2022-07-26T11:34:23.158Z,26.00
2022-07-26T11:36:53.207Z,26.50
2022-07-26T11:39:24.187Z,26.80
2022-07-26T11:41:57.558Z,27.00
2022-07-26T11:44:27.324Z,27.70
2022-07-26T11:46:57.773Z,27.50
2022-07-26T11:49:51.669Z,27.40
2022-07-26T11:52:25.354Z,27.20
2022-07-26T11:54:54.768Z,26.80
2022-07-26T11:57:23.053Z,26.60
2022-07-26T11:59:52.698Z,26.70
2022-07-26T12:02:22.616Z,27.10
2022-07-26T12:04:51.017Z,27.70
2022-07-26T12:07:21.539Z,27.80
2022-07-26T12:09:53.404Z,27.80
2022-07-26T12:12:23.056Z,27.80
2022-07-26T12:15:00.430Z,28.30
2022-07-26T12:17:35.079Z,28.50
2022-07-26T12:20:14.690Z,28.20
2022-07-26T12:22:55.122Z,28.30
2022-07-26T12:25:27.497Z,28.10
2022-07-26T12:27:55.811Z,28.60
2022-07-26T12:30:30.871Z,29.00
2022-07-26T12:33:03.069Z,28.60
2022-07-26T12:35:35.342Z,28.50
2022-07-26T12:38:04.262Z,28.40
2022-07-26T12:40:41.278Z,27.80
2022-07-26T12:43:10.079Z,27.40
2022-07-26T12:45:39.672Z,27.90
2022-07-26T12:48:11.059Z,27.90
2022-07-26T12:50:39.395Z,28.00
2022-07-26T12:53:12.684Z,28.20
2022-07-26T12:55:41.428Z,27.80
2022-07-26T12:58:10.059Z,28.30
2022-07-26T13:00:39.740Z,27.80
2022-07-26T13:03:08.155Z,27.70
2022-07-26T13:05:37.563Z,27.50
2022-07-26T13:08:06.230Z,27.30
2022-07-26T13:10:35.553Z,27.30
2022-07-26T13:13:04.870Z,27.10
2022-07-26T13:15:36.367Z,27.30
2022-07-26T13:18:08.109Z,27.00
2022-07-26T13:20:39.393Z,26.90
2022-07-26T13:23:09.833Z,27.00
2022-07-26T13:25:40.338Z,26.80
2022-07-26T13:28:09.792Z,27.10
2022-07-26T13:30:41.128Z,27.40
2022-07-26T13:33:11.051Z,27.60
2022-07-26T13:35:42.975Z,27.80
2022-07-26T13:38:11.744Z,27.60
2022-07-26T13:40:40.010Z,27.80
2022-07-26T13:43:08.753Z,28.30
2022-07-26T13:45:37.012Z,28.40
2022-07-26T13:48:07.970Z,28.30
2022-07-26T13:50:37.542Z,27.90
2022-07-26T13:53:05.790Z,28.00
2022-07-26T13:55:34.010Z,28.00
2022-07-26T13:58:07.608Z,28.60
2022-07-26T14:00:37.892Z,28.50
2022-07-26T14:03:06.653Z,28.00
2022-07-26T14:05:35.649Z,27.40
2022-07-26T14:08:05.752Z,27.30
2022-07-26T14:10:38.195Z,27.30
2022-07-26T14:13:06.717Z,27.80
2022-07-26T14:15:35.344Z,28.10
2022-07-26T14:18:03.970Z,28.70
2022-07-26T14:20:32.314Z,29.60
2022-07-26T14:23:01.323Z,30.20
2022-07-26T14:25:36.355Z,30.10
2022-07-26T14:28:04.903Z,29.90
2022-07-26T14:30:35.702Z,30.00
2022-07-26T14:33:06.068Z,30.20
2022-07-26T14:35:36.453Z,31.00
2022-07-26T14:38:04.845Z,30.70
2022-07-26T14:40:37.027Z,30.40
2022-07-26T14:43:05.326Z,30.30
2022-07-26T14:45:37.276Z,30.10
2022-07-26T14:48:09.561Z,28.70
2022-07-26T14:50:59.755Z,28.00
2022-07-26T14:53:27.190Z,27.80
2022-07-26T14:55:56.799Z,27.80
2022-07-26T14:58:25.103Z,27.80
2022-07-26T15:00:53.562Z,27.90
2022-07-26T15:03:21.932Z,28.50
2022-07-26T15:05:50.220Z,28.50
2022-07-26T15:08:18.487Z,28.10
2022-07-26T15:10:46.718Z,27.70
2022-07-26T15:13:16.410Z,27.30
2022-07-26T15:15:52.576Z,27.30
2022-07-26T15:18:22.362Z,27.20
2022-07-26T15:20:56.292Z,27.20
2022-07-26T15:23:24.534Z,27.00
2022-07-26T15:25:53.371Z,27.00
2022-07-26T15:28:26.513Z,26.90
2022-07-26T15:30:54.761Z,27.00
2022-07-26T15:33:24.322Z,27.00
2022-07-26T15:35:56.159Z,27.00
2022-07-26T15:38:27.429Z,27.30
2022-07-26T15:40:58.090Z,27.30
2022-07-26T15:43:48.024Z,27.30
2022-07-26T15:46:19.690Z,27.30
2022-07-26T15:48:53.307Z,27.80
2022-07-26T15:51:25.628Z,28.90
2022-07-26T15:56:37.288Z,29.30
2022-07-26T15:59:07.579Z,28.60
2022-07-26T16:01:36.838Z,28.30
2022-07-26T16:04:07.320Z,30.30
2022-07-26T16:06:38.588Z,33.80
2022-07-26T16:09:22.932Z,35.40
2022-07-26T16:11:51.535Z,35.50
2022-07-26T16:14:21.243Z,36.20
2022-07-26T16:16:53.156Z,38.00
2022-07-26T16:19:29.431Z,39.30
2022-07-26T16:21:58.535Z,40.10
2022-07-26T16:24:27.004Z,39.90
2022-07-26T16:26:55.217Z,36.70
2022-07-26T16:29:24.792Z,36.80
2022-07-26T16:31:54.649Z,36.60
2022-07-26T16:34:23.297Z,35.60
2022-07-26T16:36:51.507Z,36.20
2022-07-26T16:39:19.704Z,37.60
2022-07-26T16:41:47.839Z,38.70
2022-07-26T16:44:16.189Z,37.80
2022-07-26T16:46:46.060Z,34.00
2022-07-26T16:49:14.953Z,34.20
2022-07-26T16:51:43.527Z,35.80
2022-07-26T16:54:11.861Z,37.30
2022-07-26T16:56:40.112Z,36.80
2022-07-26T16:59:10.598Z,36.70
2022-07-26T17:01:39.261Z,35.40
2022-07-26T17:04:08.848Z,33.30
2022-07-26T17:06:37.091Z,32.40
2022-07-26T17:09:05.394Z,31.40
2022-07-26T17:11:33.606Z,31.60
2022-07-26T17:14:01.925Z,30.80
2022-07-26T17:16:30.232Z,30.00
2022-07-26T17:18:58.505Z,29.00
2022-07-26T17:21:28.244Z,28.70
2022-07-26T17:23:56.509Z,28.30
2022-07-26T17:26:24.652Z,28.00
2022-07-26T17:28:52.984Z,27.60
2022-07-26T17:31:21.217Z,27.20
2022-07-26T17:33:50.535Z,27.10
2022-07-26T17:36:28.366Z,27.00
2022-07-26T17:38:58.126Z,27.10
2022-07-26T17:41:33.097Z,27.20
2022-07-26T17:44:03.018Z,27.10
2022-07-26T17:46:32.673Z,26.90
2022-07-26T17:49:01.647Z,26.60
2022-07-26T17:51:31.531Z,26.70
2022-07-26T17:54:00.398Z,26.80
2022-07-26T17:56:33.510Z,26.70
2022-07-26T17:59:08.753Z,26.50
2022-07-26T18:01:50.490Z,26.40
2022-07-26T18:04:23.556Z,26.20
2022-07-26T18:06:55.232Z,26.10
2022-07-26T18:09:26.698Z,25.90
2022-07-26T18:11:57.148Z,25.70
2022-07-26T18:14:27.529Z,25.70
2022-07-26T18:16:59.944Z,25.60
2022-07-26T18:19:29.833Z,25.60
2022-07-26T18:22:04.068Z,25.50
2022-07-26T18:24:34.231Z,25.40
2022-07-26T18:27:02.352Z,25.30
2022-07-26T18:29:30.551Z,25.30
2022-07-26T18:32:00.351Z,25.20
2022-07-26T18:34:28.659Z,25.10
2022-07-26T18:36:58.336Z,25.00
2022-07-26T18:39:30.534Z,24.90
2022-07-26T18:42:01.557Z,24.80
2022-07-26T18:44:29.835Z,24.80
2022-07-26T18:46:58.071Z,24.70
2022-07-26T18:49:31.132Z,24.50
2022-07-26T18:52:08.449Z,24.30
2022-07-26T18:54:37.072Z,24.10
2022-07-26T18:57:05.715Z,24.00
2022-07-26T18:59:33.912Z,23.80
2022-07-26T19:02:02.172Z,23.70
2022-07-26T19:04:30.489Z,23.50
2022-07-26T19:07:00.174Z,23.40
2022-07-26T19:09:28.444Z,23.30
2022-07-26T19:11:56.653Z,23.10
2022-07-26T19:14:25.016Z,22.90
2022-07-26T19:16:53.275Z,22.80
2022-07-26T19:19:21.573Z,22.80
2022-07-26T19:21:49.789Z,22.80
2022-07-26T19:24:21.475Z,22.70
2022-07-26T19:26:49.647Z,22.60
2022-07-26T19:29:20.466Z,22.50
2022-07-26T19:32:05.858Z,22.30
2022-07-26T19:34:36.454Z,22.20
2022-07-26T19:37:06.163Z,22.00
2022-07-26T19:39:43.851Z,22.00
2022-07-26T19:42:13.403Z,21.90
2022-07-26T19:44:42.289Z,21.80
2022-07-26T19:47:13.542Z,21.80
2022-07-26T19:49:41.844Z,21.70
2022-07-26T19:52:11.899Z,21.50
2022-07-26T19:54:41.908Z,21.50
2022-07-26T19:57:10.152Z,21.50
2022-07-26T19:59:38.373Z,21.50
2022-07-26T20:02:06.791Z,21.40
2022-07-26T20:04:35.139Z,21.30
2022-07-26T20:07:04.320Z,21.30
2022-07-26T20:09:32.910Z,21.30
2022-07-26T20:12:02.537Z,21.20
2022-07-26T20:14:30.792Z,21.10
2022-07-26T20:16:59.425Z,21.10
2022-07-26T20:19:28.220Z,21.10
2022-07-26T20:21:56.614Z,21.00
2022-07-26T20:24:24.855Z,20.90
2022-07-26T20:26:53.170Z,20.80
2022-07-26T20:29:22.817Z,20.80
2022-07-26T20:31:51.118Z,20.80
2022-07-26T20:34:19.306Z,20.80
2022-07-26T20:36:47.698Z,20.80
2022-07-26T20:39:15.917Z,20.70
2022-07-26T20:41:44.209Z,20.70
2022-07-26T20:44:15.712Z,20.80
2022-07-26T20:46:47.889Z,20.70
2022-07-26T20:49:16.850Z,20.60
2022-07-26T20:51:45.896Z,20.60
2022-07-26T20:54:14.168Z,20.50
2022-07-26T20:56:43.145Z,20.40
2022-07-26T20:59:11.619Z,20.30
2022-07-26T21:01:40.222Z,20.20
2022-07-26T21:04:13.601Z,20.10
2022-07-26T21:06:41.827Z,20.10
2022-07-26T21:09:10.650Z,20.00
2022-07-26T21:11:39.649Z,20.00
2022-07-26T21:14:07.950Z,19.90
2022-07-26T21:16:36.314Z,19.80
2022-07-26T21:19:05.809Z,19.80
2022-07-26T21:21:37.135Z,19.80
2022-07-26T21:24:06.710Z,19.70
2022-07-26T21:26:35.164Z,19.80
2022-07-26T21:29:03.398Z,19.80
2022-07-26T21:31:31.728Z,19.70
2022-07-26T21:33:59.995Z,19.70
2022-07-26T21:36:28.245Z,19.70
2022-07-26T21:38:57.904Z,19.60
2022-07-26T21:41:26.037Z,19.50
2022-07-26T21:43:54.265Z,19.50
2022-07-26T21:46:22.658Z,19.40
2022-07-26T21:48:50.995Z,19.40
2022-07-26T21:51:19.500Z,19.30
2022-07-26T21:53:48.163Z,19.30
2022-07-26T21:56:17.691Z,19.30
2022-07-26T21:58:46.919Z,19.30
2022-07-26T22:01:15.680Z,19.20
2022-07-26T22:03:44.500Z,19.20
2022-07-26T22:06:13.771Z,19.10
2022-07-26T22:08:42.397Z,19.10
2022-07-26T22:11:10.724Z,19.00
2022-07-26T22:13:40.614Z,19.00
2022-07-26T22:16:08.925Z,19.00
2022-07-26T22:18:37.170Z,18.90
2022-07-26T22:21:05.847Z,18.90
2022-07-26T22:23:34.195Z,18.80
2022-07-26T22:26:04.550Z,18.80
2022-07-26T22:28:34.249Z,18.80
2022-07-26T22:31:03.998Z,18.80
2022-07-26T22:33:32.238Z,18.80
2022-07-26T22:36:00.471Z,18.70
2022-07-26T22:38:29.036Z,18.70
2022-07-26T22:40:57.185Z,18.60
2022-07-26T22:43:25.421Z,18.70
2022-07-26T22:45:53.730Z,18.70
2022-07-26T22:48:23.386Z,18.70
2022-07-26T22:50:51.653Z,18.60
2022-07-26T22:53:20.068Z,18.70
2022-07-26T22:55:48.498Z,18.70
2022-07-26T22:58:16.739Z,18.70
2022-07-26T23:00:45.179Z,18.60
2022-07-26T23:03:20.267Z,18.60
2022-07-26T23:05:52.280Z,18.80
2022-07-26T23:08:45.832Z,18.80
2022-07-26T23:11:09.242Z,18.90
2022-07-26T23:13:37.593Z,18.80
2022-07-26T23:16:06.454Z,18.80
2022-07-26T23:18:35.357Z,18.90
2022-07-26T23:21:05.117Z,18.90
2022-07-26T23:23:33.695Z,18.80
2022-07-26T23:26:06.220Z,18.80
2022-07-26T23:28:38.579Z,18.90
2022-07-26T23:31:11.811Z,18.90
2022-07-26T23:33:52.813Z,18.80
2022-07-26T23:36:28.480Z,18.80
2022-07-26T23:39:06.035Z,18.80
2022-07-26T23:41:36.277Z,18.80
2022-07-26T23:44:08.431Z,18.80
2022-07-26T23:46:37.992Z,18.70
2022-07-26T23:49:10.221Z,18.60
2022-07-26T23:51:47.490Z,18.50
2022-07-26T23:54:17.358Z,18.50
2022-07-26T23:56:47.530Z,18.70
2022-07-26T23:59:16.150Z,18.70
